createdAt,value
2023-03-20T00:02:23.180Z,34.27
2023-03-20T00:04:54.686Z,31.40
2023-03-20T00:07:26.424Z,35.13
2023-03-20T00:09:57.845Z,31.97
2023-03-20T00:12:29.279Z,39.07
2023-03-20T00:15:05.185Z,33.37
2023-03-20T00:17:36.687Z,29.90
2023-03-20T00:20:14.589Z,30.03
2023-03-20T00:22:46.042Z,35.73
2023-03-20T00:25:20.410Z,29.93
2023-03-20T00:27:52.234Z,31.30
2023-03-20T00:30:29.682Z,29.53
2023-03-20T00:33:01.303Z,33.73
2023-03-20T00:35:33.403Z,33.40
2023-03-20T00:38:04.883Z,27.83
2023-03-20T00:40:36.407Z,33.83
2023-03-20T00:43:10.653Z,29.40
2023-03-20T00:45:45.461Z,28.47
2023-03-20T00:48:17.070Z,34.50
2023-03-20T00:50:49.461Z,35.43
2023-03-20T00:53:20.866Z,31.17
2023-03-20T00:55:52.241Z,33.03
2023-03-20T00:58:23.659Z,33.10
2023-03-20T01:00:55.433Z,27.83
2023-03-20T01:03:29.893Z,31.03
2023-03-20T01:06:01.224Z,28.50
2023-03-20T01:08:32.599Z,34.83
2023-03-20T01:11:04.144Z,36.10
2023-03-20T01:13:38.306Z,33.97
2023-03-20T01:16:24.855Z,33.97
2023-03-20T01:18:56.764Z,30.65
2023-03-20T01:21:28.041Z,27.20
2023-03-20T01:23:59.323Z,34.73
2023-03-20T01:26:42.308Z,31.20
2023-03-20T01:29:19.877Z,30.97
2023-03-20T01:31:52.193Z,38.67
2023-03-20T01:34:23.542Z,34.53
2023-03-20T01:36:57.927Z,36.37
2023-03-20T01:39:34.017Z,32.33
2023-03-20T01:42:06.143Z,40.78
2023-03-20T01:44:38.234Z,38.20
2023-03-20T01:47:19.093Z,40.87
2023-03-20T01:50:28.583Z,37.57
2023-03-20T01:53:30.206Z,41.57
2023-03-20T01:56:01.746Z,40.47
2023-03-20T01:58:38.814Z,42.43
2023-03-20T02:01:14.045Z,41.30
2023-03-20T02:03:50.503Z,43.10
2023-03-20T02:06:23.652Z,38.50
2023-03-20T02:08:55.245Z,43.67
2023-03-20T02:11:26.806Z,40.17
2023-03-20T02:14:00.878Z,53.90
2023-03-20T02:16:32.378Z,37.73
2023-03-20T02:19:06.224Z,41.77
2023-03-20T02:22:03.498Z,44.80
2023-03-20T02:25:03.380Z,40.63
2023-03-20T02:27:42.984Z,41.60
2023-03-20T02:30:32.923Z,37.37
2023-03-20T02:33:36.781Z,41.43
2023-03-20T02:36:32.016Z,43.73
2023-03-20T02:39:40.303Z,39.93
2023-03-20T02:42:44.346Z,44.60
2023-03-20T02:45:42.987Z,44.80
2023-03-20T02:48:26.506Z,40.03
2023-03-20T02:51:03.513Z,47.73
2023-03-20T02:53:42.893Z,40.43
2023-03-20T02:56:57.286Z,46.67
2023-03-20T02:59:46.382Z,42.93
2023-03-20T03:02:32.269Z,41.93
2023-03-20T03:05:12.563Z,31.48
2023-03-20T03:07:48.007Z,33.60
2023-03-20T03:10:36.815Z,37.85
2023-03-20T03:13:15.182Z,39.07
2023-03-20T03:15:51.033Z,35.93
2023-03-20T03:18:26.380Z,31.77
2023-03-20T03:21:01.076Z,32.78
2023-03-20T03:23:37.309Z,36.13
2023-03-20T03:28:48.450Z,28.37
2023-03-20T03:31:21.957Z,30.20
2023-03-20T03:33:57.117Z,30.50
2023-03-20T03:36:51.571Z,32.10
2023-03-20T03:39:34.680Z,29.53
2023-03-20T03:42:24.488Z,26.60
2023-03-20T03:45:12.490Z,25.60
2023-03-20T03:48:07.324Z,28.70
2023-03-20T03:50:48.322Z,22.70
2023-03-20T03:53:25.216Z,15.20
2023-03-20T03:56:02.657Z,24.00
2023-03-20T03:58:45.325Z,17.73
2023-03-20T04:01:18.165Z,15.90
2023-03-20T04:03:56.161Z,15.60
2023-03-20T04:06:27.976Z,19.63
2023-03-20T04:08:59.469Z,16.27
2023-03-20T04:11:31.215Z,14.53
2023-03-20T04:14:02.666Z,16.10
2023-03-20T04:16:34.087Z,12.80
2023-03-20T04:19:05.447Z,12.17
2023-03-20T04:21:36.980Z,11.33
2023-03-20T04:24:08.462Z,13.17
2023-03-20T04:26:40.479Z,10.67
2023-03-20T04:29:11.908Z,11.80
2023-03-20T04:31:43.258Z,9.80
2023-03-20T04:34:15.028Z,8.33
2023-03-20T04:36:47.326Z,11.37
2023-03-20T04:39:18.672Z,13.10
2023-03-20T04:41:52.062Z,10.97
2023-03-20T04:44:23.489Z,13.33
2023-03-20T04:46:54.939Z,8.77
2023-03-20T04:49:28.648Z,9.13
2023-03-20T04:52:00.312Z,9.87
2023-03-20T04:54:31.734Z,8.43
2023-03-20T04:57:03.359Z,9.03
2023-03-20T04:59:34.661Z,10.60
2023-03-20T05:02:06.221Z,8.53
2023-03-20T05:04:37.617Z,7.93
2023-03-20T05:07:09.117Z,8.60
2023-03-20T05:09:40.401Z,8.40
2023-03-20T05:12:11.846Z,7.63
2023-03-20T05:14:43.290Z,10.57
2023-03-20T05:17:14.629Z,10.67
2023-03-20T05:19:45.956Z,12.33
2023-03-20T05:22:18.319Z,10.73
2023-03-20T05:24:49.690Z,7.53
2023-03-20T05:27:21.102Z,6.73
2023-03-20T05:29:52.490Z,7.77
2023-03-20T05:32:23.983Z,8.43
2023-03-20T05:34:55.356Z,6.97
2023-03-20T05:37:27.035Z,7.67
2023-03-20T05:39:58.363Z,5.60
2023-03-20T05:42:29.650Z,8.53
2023-03-20T05:45:01.366Z,5.87
2023-03-20T05:47:32.899Z,7.90
2023-03-20T05:50:04.502Z,9.20
2023-03-20T05:52:36.290Z,6.83
2023-03-20T05:55:08.125Z,8.07
2023-03-20T05:57:39.459Z,10.47
2023-03-20T06:00:11.407Z,7.47
2023-03-20T06:02:43.980Z,9.30
2023-03-20T06:05:16.386Z,7.00
2023-03-20T06:07:47.733Z,8.83
2023-03-20T06:10:20.624Z,7.37
2023-03-20T06:12:52.013Z,8.03
2023-03-20T06:15:25.204Z,7.83
2023-03-20T06:17:57.010Z,8.93
2023-03-20T06:20:28.577Z,8.53
2023-03-20T06:23:00.298Z,7.97
2023-03-20T06:25:31.660Z,7.70
2023-03-20T06:28:03.014Z,8.93
2023-03-20T06:30:34.346Z,7.27
2023-03-20T06:33:09.600Z,8.53
2023-03-20T06:35:41.507Z,8.57
2023-03-20T06:38:12.849Z,10.13
2023-03-20T06:40:45.118Z,7.63
2023-03-20T06:43:16.746Z,7.83
2023-03-20T06:45:48.493Z,8.77
2023-03-20T06:48:22.535Z,8.27
2023-03-20T06:50:53.949Z,12.10
2023-03-20T06:53:25.962Z,9.00
2023-03-20T06:55:57.289Z,7.67
2023-03-20T06:58:28.595Z,8.27
2023-03-20T07:00:59.941Z,8.60
2023-03-20T07:03:31.368Z,8.43
2023-03-20T07:06:03.026Z,9.53
2023-03-20T07:08:35.267Z,8.53
2023-03-20T07:11:07.063Z,9.30
2023-03-20T07:13:38.612Z,7.67
2023-03-20T07:16:10.161Z,8.10
2023-03-20T07:18:41.644Z,9.40
2023-03-20T07:21:18.666Z,9.67
2023-03-20T07:23:49.978Z,8.03
2023-03-20T07:26:21.385Z,8.00
2023-03-20T07:28:52.962Z,8.07
2023-03-20T07:31:26.854Z,13.00
2023-03-20T07:33:58.572Z,8.37
2023-03-20T07:36:29.919Z,9.77
2023-03-20T07:39:01.210Z,9.63
2023-03-20T07:41:32.510Z,9.80
2023-03-20T07:44:04.076Z,9.43
2023-03-20T07:46:35.576Z,9.23
2023-03-20T07:49:07.564Z,9.47
2023-03-20T07:51:38.962Z,9.53
2023-03-20T07:54:10.396Z,12.67
2023-03-20T07:56:42.229Z,8.10
2023-03-20T07:59:13.800Z,10.03
2023-03-20T08:01:45.368Z,10.40
2023-03-20T08:04:19.456Z,12.27
2023-03-20T08:06:51.463Z,12.17
2023-03-20T08:09:23.128Z,12.80
2023-03-20T08:11:54.433Z,12.87
2023-03-20T08:14:25.798Z,12.17
2023-03-20T08:17:12.957Z,13.70
2023-03-20T08:19:45.908Z,13.17
2023-03-20T08:22:17.235Z,13.03
2023-03-20T08:24:48.536Z,13.07
2023-03-20T08:27:19.826Z,12.77
2023-03-20T08:29:51.587Z,9.87
2023-03-20T08:32:22.905Z,11.10
2023-03-20T08:34:57.191Z,12.87
2023-03-20T08:37:28.622Z,15.97
2023-03-20T08:40:00.290Z,11.67
2023-03-20T08:42:31.877Z,11.30
2023-03-20T08:45:03.382Z,10.57
2023-03-20T08:47:34.702Z,13.30
2023-03-20T08:50:07.333Z,11.27
2023-03-20T08:52:43.710Z,11.03
2023-03-20T08:55:16.341Z,13.13
2023-03-20T08:57:47.697Z,13.07
2023-03-20T09:00:20.481Z,14.63
2023-03-20T09:02:52.209Z,14.40
2023-03-20T09:05:23.887Z,12.47
2023-03-20T09:07:55.187Z,11.17
2023-03-20T09:10:26.481Z,8.97
2023-03-20T09:12:57.786Z,9.60
2023-03-20T09:15:29.273Z,12.83
2023-03-20T09:18:02.850Z,12.37
2023-03-20T09:20:35.272Z,10.07
2023-03-20T09:23:06.713Z,14.17
2023-03-20T09:25:38.269Z,9.70
2023-03-20T09:28:09.852Z,9.57
2023-03-20T09:30:43.312Z,12.17
2023-03-20T09:33:14.856Z,11.97
2023-03-20T09:35:46.914Z,10.87
2023-03-20T09:38:18.504Z,15.03
2023-03-20T09:40:49.802Z,10.43
2023-03-20T09:43:41.014Z,14.33
2023-03-20T09:46:49.327Z,15.17
2023-03-20T09:49:58.282Z,10.23
2023-03-20T09:52:37.969Z,9.27
2023-03-20T09:55:20.182Z,9.10
2023-03-20T09:57:58.494Z,12.07
2023-03-20T10:00:34.547Z,12.03
2023-03-20T10:03:18.037Z,10.90
2023-03-20T10:05:52.645Z,8.00
2023-03-20T10:08:29.380Z,9.93
2023-03-20T10:11:06.841Z,11.20
2023-03-20T10:13:38.188Z,7.87
2023-03-20T10:16:45.169Z,9.33
2023-03-20T10:19:31.183Z,9.43
2023-03-20T10:22:11.249Z,10.20
2023-03-20T10:24:49.780Z,9.87
2023-03-20T10:27:44.168Z,6.93
2023-03-20T10:30:27.533Z,7.30
2023-03-20T10:33:14.142Z,11.23
2023-03-20T10:36:21.554Z,7.68
2023-03-20T10:39:02.021Z,8.75
2023-03-20T10:41:38.134Z,9.13
2023-03-20T10:44:17.007Z,8.88
2023-03-20T10:46:52.767Z,8.10
2023-03-20T10:49:40.980Z,6.93
2023-03-20T10:52:18.050Z,9.03
2023-03-20T10:54:58.996Z,7.23
2023-03-20T10:57:38.054Z,6.50
2023-03-20T11:00:21.298Z,6.60
2023-03-20T11:02:52.900Z,7.70
2023-03-20T11:05:30.653Z,9.90
2023-03-20T11:08:08.136Z,10.67
2023-03-20T11:10:42.011Z,9.57
2023-03-20T11:13:30.940Z,6.73
2023-03-20T11:16:18.302Z,6.47
2023-03-20T11:18:52.209Z,9.47
2023-03-20T11:21:27.626Z,7.90
2023-03-20T11:23:59.009Z,8.70
2023-03-20T11:26:39.423Z,6.47
2023-03-20T11:29:28.961Z,8.23
2023-03-20T11:32:06.734Z,8.90
2023-03-20T11:34:40.854Z,9.03
2023-03-20T11:37:25.794Z,7.23
2023-03-20T11:40:14.137Z,11.30
2023-03-20T11:43:02.691Z,8.20
2023-03-20T11:45:43.428Z,9.43
2023-03-20T11:48:25.845Z,10.27
2023-03-20T11:51:03.664Z,8.40
2023-03-20T11:53:39.855Z,7.33
2023-03-20T11:59:18.398Z,6.70
2023-03-20T12:01:55.665Z,9.87
2023-03-20T12:04:37.608Z,11.63
2023-03-20T12:07:36.995Z,8.87
2023-03-20T12:10:13.960Z,6.07
2023-03-20T12:12:57.843Z,6.67
2023-03-20T12:15:37.011Z,8.40
2023-03-20T12:18:21.828Z,8.13
2023-03-20T12:21:18.167Z,9.17
2023-03-20T12:24:22.540Z,5.70
2023-03-20T12:27:18.307Z,7.93
2023-03-20T12:29:58.821Z,13.80
2023-03-20T12:32:51.288Z,7.27
2023-03-20T12:35:37.551Z,8.37
2023-03-20T12:38:23.071Z,7.85
2023-03-20T12:41:03.418Z,9.10
2023-03-20T12:44:02.232Z,5.97
2023-03-20T12:46:51.443Z,10.93
2023-03-20T12:49:51.778Z,9.80
2023-03-20T12:52:50.693Z,6.40
2023-03-20T12:55:36.213Z,5.73
2023-03-20T12:58:35.290Z,9.07
2023-03-20T13:01:25.997Z,6.93
2023-03-20T13:04:23.522Z,7.57
2023-03-20T13:07:02.505Z,5.70
2023-03-20T13:10:01.958Z,8.10
2023-03-20T13:12:44.956Z,8.20
2023-03-20T13:15:37.459Z,5.07
2023-03-20T13:18:46.360Z,8.37
2023-03-20T13:21:56.567Z,6.17
2023-03-20T13:24:47.374Z,5.70
2023-03-20T13:27:30.893Z,8.00
2023-03-20T13:30:28.484Z,5.83
2023-03-20T13:33:16.356Z,10.63
2023-03-20T13:36:24.225Z,6.13
2023-03-20T13:39:28.586Z,6.90
2023-03-20T13:42:06.600Z,7.90
2023-03-20T13:44:41.110Z,5.07
2023-03-20T13:47:18.622Z,6.80
2023-03-20T13:50:04.911Z,4.90
2023-03-20T13:52:45.520Z,6.65
2023-03-20T13:55:23.736Z,6.90
2023-03-20T13:58:24.835Z,8.27
2023-03-20T14:01:05.579Z,11.03
2023-03-20T14:03:45.145Z,7.47
2023-03-20T14:06:39.320Z,6.93
2023-03-20T14:09:32.486Z,9.83
2023-03-20T14:12:11.212Z,5.60
2023-03-20T14:14:49.349Z,7.07
2023-03-20T14:17:26.500Z,8.67
2023-03-20T14:20:16.483Z,7.07
2023-03-20T14:22:49.022Z,8.20
2023-03-20T14:25:23.689Z,9.20
2023-03-20T14:28:10.044Z,8.20
2023-03-20T14:30:50.697Z,7.15
2023-03-20T14:33:23.479Z,6.37
2023-03-20T14:36:04.052Z,9.43
2023-03-20T14:38:44.414Z,8.70
2023-03-20T14:41:22.696Z,7.03
2023-03-20T14:44:08.953Z,8.83
2023-03-20T14:46:51.782Z,5.57
2023-03-20T14:49:34.651Z,8.17
2023-03-20T14:52:42.597Z,9.53
2023-03-20T14:55:28.758Z,9.40
2023-03-20T14:58:25.206Z,14.00
2023-03-20T15:01:03.185Z,5.03
2023-03-20T15:03:40.566Z,8.40
2023-03-20T15:06:12.243Z,8.90
2023-03-20T15:09:06.698Z,8.10
2023-03-20T15:11:42.484Z,10.03
2023-03-20T15:14:22.261Z,6.68
2023-03-20T15:16:59.341Z,9.83
2023-03-20T15:19:30.678Z,12.23
2023-03-20T15:22:02.056Z,9.10
2023-03-20T15:24:33.657Z,10.97
2023-03-20T15:27:05.257Z,8.17
2023-03-20T15:29:36.596Z,9.10
2023-03-20T15:32:14.953Z,9.60
2023-03-20T15:34:48.953Z,7.53
2023-03-20T15:37:23.673Z,8.97
2023-03-20T15:40:00.228Z,10.43
2023-03-20T15:42:31.870Z,10.87
2023-03-20T15:45:21.809Z,9.03
2023-03-20T15:48:00.459Z,13.90
2023-03-20T15:50:35.369Z,8.67
2023-03-20T15:53:11.111Z,8.30
2023-03-20T15:55:50.666Z,10.02
2023-03-20T15:58:22.439Z,7.63
2023-03-20T16:00:53.906Z,11.40
2023-03-20T16:03:27.813Z,8.00
2023-03-20T16:06:01.183Z,8.07
2023-03-20T16:08:34.034Z,7.73
2023-03-20T16:11:08.207Z,8.17
2023-03-20T16:13:51.562Z,10.13
2023-03-20T16:16:24.496Z,11.23
2023-03-20T16:18:58.117Z,7.40
2023-03-20T16:21:35.572Z,6.27
2023-03-20T16:24:11.324Z,6.90
2023-03-20T16:26:47.763Z,8.85
2023-03-20T16:29:22.821Z,8.57
2023-03-20T16:32:07.230Z,11.00
2023-03-20T16:34:39.597Z,8.77
2023-03-20T16:37:29.252Z,7.33
2023-03-20T16:40:19.196Z,10.20
2023-03-20T16:42:54.714Z,7.03
2023-03-20T16:45:34.852Z,9.48
2023-03-20T16:48:11.987Z,7.43
2023-03-20T16:50:45.284Z,9.20
2023-03-20T16:53:21.546Z,8.90
2023-03-20T16:58:32.898Z,8.77
2023-03-20T17:01:08.527Z,16.53
2023-03-20T17:03:43.896Z,11.80
2023-03-20T17:06:21.600Z,8.88
2023-03-20T17:09:01.290Z,11.80
2023-03-20T17:11:36.279Z,9.87
2023-03-20T17:14:07.598Z,8.67
2023-03-20T17:16:40.208Z,12.50
2023-03-20T17:19:18.186Z,9.87
2023-03-20T17:21:50.047Z,9.87
2023-03-20T17:24:21.446Z,8.10
2023-03-20T17:26:55.879Z,10.40
2023-03-20T17:29:27.303Z,14.77
2023-03-20T17:31:58.736Z,7.90
2023-03-20T17:34:30.347Z,8.63
2023-03-20T17:37:03.307Z,6.50
2023-03-20T17:39:34.686Z,8.63
2023-03-20T17:42:18.687Z,12.10
2023-03-20T17:44:50.587Z,10.53
2023-03-20T17:47:24.053Z,8.70
2023-03-20T17:49:55.972Z,15.67
2023-03-20T17:52:28.425Z,11.27
2023-03-20T17:54:59.808Z,8.40
2023-03-20T17:57:33.236Z,6.03
2023-03-20T18:00:20.323Z,12.27
2023-03-20T18:02:51.736Z,9.67
2023-03-20T18:05:24.452Z,8.33
2023-03-20T18:07:55.848Z,10.10
2023-03-20T18:10:31.961Z,9.30
2023-03-20T18:15:35.103Z,10.17
2023-03-20T18:18:08.729Z,6.93
2023-03-20T18:20:41.191Z,8.13
2023-03-20T18:23:14.109Z,10.57
2023-03-20T18:25:45.599Z,8.53
2023-03-20T18:28:22.675Z,7.60
2023-03-20T18:30:54.250Z,9.77
2023-03-20T18:33:27.633Z,9.80
2023-03-20T18:35:59.029Z,11.80
2023-03-20T18:38:30.660Z,11.33
2023-03-20T18:41:02.004Z,8.80
2023-03-20T18:43:33.342Z,7.97
2023-03-20T18:46:05.012Z,13.43
2023-03-20T18:48:36.358Z,7.73
2023-03-20T18:51:08.014Z,11.53
2023-03-20T18:53:41.029Z,12.10
2023-03-20T18:56:17.356Z,8.70
2023-03-20T18:58:49.313Z,7.43
2023-03-20T19:01:21.356Z,11.13
2023-03-20T19:03:53.713Z,10.30
2023-03-20T19:06:25.760Z,15.27
2023-03-20T19:08:57.303Z,9.40
2023-03-20T19:11:28.628Z,9.50
2023-03-20T19:13:59.961Z,8.50
2023-03-20T19:16:35.020Z,13.20
2023-03-20T19:19:08.298Z,10.07
2023-03-20T19:21:39.859Z,10.07
2023-03-20T19:24:11.297Z,11.03
2023-03-20T19:26:42.607Z,11.13
2023-03-20T19:29:14.526Z,6.70
2023-03-20T19:31:46.973Z,8.97
2023-03-20T19:34:51.850Z,9.53
2023-03-20T19:37:12.448Z,14.40
2023-03-20T19:39:43.782Z,8.10
2023-03-20T19:42:47.439Z,7.30
2023-03-20T19:45:07.714Z,11.87
2023-03-20T19:47:39.016Z,11.67
2023-03-20T19:50:33.933Z,10.87
2023-03-20T19:53:09.051Z,8.73
2023-03-20T19:55:42.897Z,5.07
2023-03-20T19:58:14.286Z,7.73
2023-03-20T20:01:00.996Z,5.57
2023-03-20T20:06:04.749Z,6.43
2023-03-20T20:08:47.865Z,7.67
2023-03-20T20:11:21.184Z,9.57
2023-03-20T20:14:09.617Z,8.03
2023-03-20T20:16:43.177Z,7.93
2023-03-20T20:19:14.905Z,6.67
2023-03-20T20:24:37.767Z,9.50
2023-03-20T20:27:17.318Z,7.97
2023-03-20T20:29:53.500Z,9.80
2023-03-20T20:32:27.620Z,8.03
2023-03-20T20:43:43.880Z,7.00
2023-03-20T20:46:11.233Z,10.00
2023-03-20T20:48:42.770Z,9.67
2023-03-20T20:51:14.147Z,8.17
2023-03-20T20:53:45.511Z,9.80
2023-03-20T20:56:16.833Z,10.07
2023-03-20T20:58:48.166Z,9.80
2023-03-20T21:01:19.535Z,13.37
2023-03-20T21:03:52.243Z,8.93
2023-03-20T21:06:44.019Z,8.73
2023-03-20T21:09:15.007Z,10.97
2023-03-20T21:11:47.413Z,12.20
2023-03-20T21:14:18.906Z,11.30
2023-03-20T21:16:50.312Z,9.97
2023-03-20T21:19:21.670Z,11.90
2023-03-20T21:21:53.064Z,12.83
2023-03-20T21:24:34.286Z,14.03
2023-03-20T21:27:10.890Z,12.93
2023-03-20T21:32:17.362Z,14.93
2023-03-20T21:34:49.959Z,15.70
2023-03-20T21:38:28.383Z,14.73
2023-03-20T21:40:13.065Z,12.33
2023-03-20T21:42:46.024Z,15.13
2023-03-20T21:52:02.476Z,14.30
2023-03-20T22:00:36.273Z,13.73
2023-03-20T22:02:30.192Z,15.20
2023-03-20T22:05:50.394Z,16.10
2023-03-20T22:11:40.634Z,15.20
2023-03-20T22:14:40.655Z,19.03
2023-03-20T22:17:36.575Z,16.33
2023-03-20T22:23:09.426Z,17.83
2023-03-20T22:25:46.581Z,14.67
2023-03-20T22:31:34.652Z,12.83
2023-03-20T22:34:37.065Z,14.83
2023-03-20T22:42:49.563Z,16.77
2023-03-20T22:45:11.493Z,22.50
2023-03-20T22:47:42.999Z,20.03
2023-03-20T22:50:15.758Z,16.73
2023-03-20T22:52:49.594Z,17.03
2023-03-20T22:55:22.796Z,17.87
2023-03-20T22:58:06.508Z,17.63
2023-03-20T23:00:38.832Z,18.77
2023-03-20T23:03:25.710Z,21.60
2023-03-20T23:06:17.629Z,21.07
2023-03-20T23:08:55.259Z,20.90
2023-03-20T23:11:28.612Z,21.33
2023-03-20T23:14:00.976Z,25.80
2023-03-20T23:16:32.751Z,24.67
2023-03-20T23:19:04.168Z,24.17
2023-03-20T23:21:35.576Z,22.20
2023-03-20T23:24:08.264Z,22.23
2023-03-20T23:26:39.628Z,24.97
2023-03-20T23:29:11.658Z,23.80
2023-03-20T23:31:43.290Z,24.80
2023-03-20T23:34:17.401Z,23.97
2023-03-20T23:36:49.231Z,25.40
2023-03-20T23:39:20.846Z,27.40
2023-03-20T23:42:12.166Z,28.07
2023-03-20T23:44:49.887Z,24.83
2023-03-20T23:47:29.949Z,29.53
2023-03-20T23:50:09.691Z,30.07
2023-03-20T23:52:50.003Z,27.87
2023-03-20T23:55:28.700Z,25.93
2023-03-20T23:58:00.117Z,29.43
